RJNY  Shizuhama Airport

Add Bookmark

Japan

Status
Operational
Latitude Longitude
34° 48' 46" N 138° 17' 52" E
34.812801 138.298004
Local (DST + 9) UTC (GMT + 9)
Jan 26, 2015 01:19 Jan 26, 2015 04:19
Sunrise-Sunset Local UTC
Begin Civil Twilight 06:21 21:21
Sunrise 06:48 21:48
Sunset 05:10 08:10
End Civil Twilight 05:37 08:37

Current Weather

METAR Observed VFR
RJNY 260350Z 20008KT 9999 FEW030 SCT040 13/05 Q1021 Mon, Jan 26, 2015 @ 03:50 UTC
(29 Minutes ago)
Visual Flight Rules
Wind Visibility Clouds Conditions
200° at 8 knots (15 kph) 10 km or more
  • Few at 3,000' AGL
  • Scattered at 4,000' AGL
  • No significant weather
Temperatures Readings Precipitation
Current Temp 13°C (55°F)
Dewpoint 5°C (41°F)
Humidity 59%
Altimeter 30.15"Hg
Sea Level Pressure 1021mb
Field Elevation 32.81'
None Recorded

Additional weather within a 92.6km radius of RJNY

Map ICAO Location
rjns 10.2km W (259°)
RJAT 76.7km N (043°)

24 Hour Weather History

Loading
-

24 Hour Weather Graphs

Loading
-

CheckWX.com is intended as a tool to help pilots better visualize weather data. It is not intended as a substitute for an official weather briefing obtained from a Flight Service Station. CheckWX.com does not meet the FAA requirements for an official pre-flight weather briefing. Therefore, it's important that pilots still call and obtain an official FSS pre-flight weather briefing.